createdAt,value
2022-11-20T00:50:28.436Z,1010.26
2022-11-20T00:55:29.594Z,1010.26
2022-11-20T01:00:30.832Z,1010.28
2022-11-20T01:05:32.027Z,1010.28
2022-11-20T01:10:33.224Z,1010.37
2022-11-20T01:15:34.420Z,1010.40
2022-11-20T01:20:36.653Z,1010.48
2022-11-20T01:25:36.841Z,1010.45
2022-11-20T01:30:37.015Z,1010.51
2022-11-20T01:35:37.151Z,1010.58
2022-11-20T01:40:36.802Z,1010.56
2022-11-20T01:45:36.109Z,1010.53
2022-11-20T01:50:37.195Z,1010.60
2022-11-20T01:55:38.337Z,1010.59
2022-11-20T02:00:39.505Z,1010.61
2022-11-20T02:05:40.617Z,1010.59
2022-11-20T02:10:41.769Z,1010.59
2022-11-20T02:15:42.865Z,1010.57
2022-11-20T02:20:44.055Z,1010.66
2022-11-20T02:25:45.191Z,1010.75
2022-11-20T02:30:46.384Z,1010.80
2022-11-20T02:35:46.562Z,1010.90
2022-11-20T02:40:51.406Z,1010.85
2022-11-20T02:45:47.711Z,1010.76
2022-11-20T02:50:48.899Z,1010.79
2022-11-20T02:55:50.047Z,1010.73
2022-11-20T03:00:52.301Z,1010.76
2022-11-20T03:05:51.535Z,1010.71
2022-11-20T03:10:52.677Z,1010.75
2022-11-20T03:15:53.789Z,1010.70
2022-11-20T03:20:54.966Z,1010.72
2022-11-20T03:25:57.339Z,1010.79
2022-11-20T03:30:56.513Z,1010.70
2022-11-20T03:35:57.913Z,1010.71
2022-11-20T03:40:59.097Z,1010.79
2022-11-20T03:46:00.225Z,1010.79
2022-11-20T03:51:01.351Z,1010.79
2022-11-20T03:56:02.464Z,1010.91
2022-11-20T04:01:03.671Z,1010.86
2022-11-20T04:06:04.948Z,1010.82
2022-11-20T04:11:06.081Z,1010.89
2022-11-20T04:16:07.229Z,1010.95
2022-11-20T04:21:09.331Z,1010.94
2022-11-20T04:26:08.453Z,1010.97
2022-11-20T04:31:09.646Z,1010.94
2022-11-20T04:36:10.753Z,1010.94
2022-11-20T04:41:11.916Z,1010.94
2022-11-20T04:46:13.071Z,1011.03
2022-11-20T04:51:14.244Z,1011.00
2022-11-20T04:56:16.500Z,1010.96
2022-11-20T05:01:15.633Z,1011.05
2022-11-20T05:06:17.982Z,1011.02
2022-11-20T05:11:17.139Z,1011.08
2022-11-20T05:16:19.272Z,1011.03
2022-11-20T05:21:19.093Z,1011.11
2022-11-20T05:26:18.290Z,1011.15
2022-11-20T05:31:25.059Z,1011.17
2022-11-20T05:36:20.500Z,1011.22
2022-11-20T05:41:19.592Z,1011.24
2022-11-20T05:46:26.455Z,1011.19
2022-11-20T05:51:20.888Z,1011.24
2022-11-20T05:56:22.098Z,1011.23
2022-11-20T06:01:23.347Z,1011.29
2022-11-20T06:06:24.519Z,1011.31
2022-11-20T06:11:25.742Z,1011.24
2022-11-20T06:16:26.905Z,1011.27
2022-11-20T06:21:28.083Z,1011.19
2022-11-20T06:26:40.124Z,1011.19
2022-11-20T06:31:29.337Z,1011.12
2022-11-20T06:36:30.543Z,1011.13
2022-11-20T06:41:31.708Z,1011.16
2022-11-20T06:46:32.909Z,1011.23
2022-11-20T06:51:35.085Z,1011.29
2022-11-20T06:56:34.305Z,1011.35
2022-11-20T07:01:35.452Z,1011.41
2022-11-20T07:06:36.671Z,1011.57
2022-11-20T07:11:37.882Z,1011.64
2022-11-20T07:16:39.040Z,1011.73
2022-11-20T07:21:40.253Z,1011.76
2022-11-20T07:26:41.393Z,1011.81
2022-11-20T07:31:42.629Z,1011.80
2022-11-20T07:36:43.822Z,1011.76
2022-11-20T07:41:44.956Z,1011.76
2022-11-20T07:46:46.127Z,1011.81
2022-11-20T07:51:50.147Z,1011.74
2022-11-20T07:56:48.260Z,1011.82
2022-11-20T08:01:49.410Z,1011.83
2022-11-20T08:06:50.605Z,1011.84
2022-11-20T08:11:51.662Z,1011.84
2022-11-20T08:16:52.819Z,1011.88
2022-11-20T08:21:53.896Z,1011.90
2022-11-20T08:26:55.052Z,1011.82
2022-11-20T08:31:56.193Z,1011.87
2022-11-20T08:36:57.320Z,1011.86
2022-11-20T08:41:58.470Z,1011.84
2022-11-20T08:46:59.600Z,1011.92
2022-11-20T08:52:00.762Z,1011.89
2022-11-20T08:57:02.912Z,1011.90
2022-11-20T09:02:03.021Z,1011.88
2022-11-20T09:07:02.230Z,1011.91
2022-11-20T09:12:03.380Z,1011.93
2022-11-20T09:17:04.618Z,1011.87
2022-11-20T09:22:05.765Z,1011.89
2022-11-20T09:27:06.875Z,1011.86
2022-11-20T09:32:08.015Z,1011.83
2022-11-20T09:37:09.135Z,1011.77
2022-11-20T09:42:09.244Z,1011.67
2022-11-20T09:47:10.370Z,1011.75
2022-11-20T09:52:10.481Z,1011.74
2022-11-20T09:57:11.597Z,1011.65
2022-11-20T10:02:12.764Z,1011.72
2022-11-20T10:12:13.939Z,1011.69
2022-11-20T10:17:15.061Z,1011.69
2022-11-20T10:22:15.364Z,1011.70
2022-11-20T10:27:16.505Z,1011.60
2022-11-20T10:32:18.621Z,1011.62
2022-11-20T10:37:17.799Z,1011.64
2022-11-20T10:42:18.967Z,1011.59
2022-11-20T10:47:20.119Z,1011.60
2022-11-20T10:52:22.310Z,1011.53
2022-11-20T10:57:21.463Z,1011.49
2022-11-20T11:02:22.655Z,1011.43
2022-11-20T11:07:23.961Z,1011.34
2022-11-20T11:12:26.151Z,1011.32
2022-11-20T11:17:25.290Z,1011.09
2022-11-20T11:22:27.429Z,1010.92
2022-11-20T11:27:26.535Z,1010.94
2022-11-20T11:32:28.761Z,1010.93
2022-11-20T11:37:27.865Z,1010.83
2022-11-20T11:42:29.035Z,1010.85
2022-11-20T11:47:32.149Z,1010.76
2022-11-20T11:52:31.346Z,1010.71
2022-11-20T11:57:33.597Z,1010.64
2022-11-20T12:02:32.848Z,1010.63
2022-11-20T12:07:49.329Z,1010.58
2022-11-20T12:12:34.042Z,1010.56
2022-11-20T12:17:35.212Z,1010.61
2022-11-20T12:22:36.312Z,1010.49
2022-11-20T12:27:37.490Z,1010.47
2022-11-20T12:32:37.638Z,1010.44
2022-11-20T12:37:40.024Z,1010.40
2022-11-20T12:42:39.199Z,1010.36
2022-11-20T12:47:40.343Z,1010.23
2022-11-20T12:52:41.704Z,1010.22
2022-11-20T12:57:42.913Z,1010.21
2022-11-20T13:02:45.316Z,1010.16
2022-11-20T13:07:44.757Z,1010.05
2022-11-20T13:12:43.946Z,1009.97
2022-11-20T13:17:45.164Z,1009.88
2022-11-20T13:22:46.556Z,1009.82
2022-11-20T13:27:45.775Z,1009.83
2022-11-20T13:32:47.175Z,1009.66
2022-11-20T13:37:46.434Z,1009.57
2022-11-20T13:42:47.699Z,1009.51
2022-11-20T13:47:49.159Z,1009.50
2022-11-20T13:52:55.000Z,1009.47
2022-11-20T13:57:54.219Z,1009.38
2022-11-20T14:02:51.679Z,1009.39
2022-11-20T14:07:50.904Z,1009.41
2022-11-20T14:12:53.260Z,1009.42
2022-11-20T14:17:52.508Z,1009.46
2022-11-20T14:22:54.491Z,1009.47
2022-11-20T14:27:55.884Z,1009.41
2022-11-20T14:32:55.253Z,1009.48
2022-11-20T14:37:56.703Z,1009.47
2022-11-20T14:42:57.163Z,1009.41
2022-11-20T14:47:56.599Z,1009.37
2022-11-20T14:52:56.034Z,1009.28
2022-11-20T14:57:58.087Z,1009.30
2022-11-20T15:02:58.529Z,1009.24
2022-11-20T15:07:57.786Z,1009.15
2022-11-20T15:12:59.185Z,1009.18
2022-11-20T15:17:58.476Z,1009.18
2022-11-20T15:22:59.683Z,1009.20
2022-11-20T15:28:02.127Z,1009.25
2022-11-20T15:33:01.592Z,1009.16
2022-11-20T15:38:03.036Z,1009.13
2022-11-20T15:43:02.550Z,1009.03
2022-11-20T15:48:01.986Z,1009.02
2022-11-20T15:53:03.534Z,1009.08
2022-11-20T15:58:02.769Z,1009.13
2022-11-20T16:03:06.749Z,1009.21
2022-11-20T16:08:09.975Z,1009.07
2022-11-20T16:13:05.069Z,1008.98
2022-11-20T16:18:05.567Z,1008.91
2022-11-20T16:23:07.456Z,1008.93
2022-11-20T16:28:08.692Z,1008.84
2022-11-20T16:33:10.211Z,1008.70
2022-11-20T16:38:09.866Z,1008.81
2022-11-20T16:43:09.605Z,1008.83
2022-11-20T16:48:09.034Z,1008.76
2022-11-20T16:53:11.429Z,1008.76
2022-11-20T16:58:14.025Z,1008.79
2022-11-20T17:03:12.470Z,1008.79
2022-11-20T17:08:12.638Z,1008.87
2022-11-20T17:13:12.001Z,1008.78
2022-11-20T17:18:14.532Z,1008.67
2022-11-20T17:23:14.064Z,1008.60
2022-11-20T17:28:13.605Z,1008.61
2022-11-20T17:33:13.105Z,1008.62
2022-11-20T17:38:14.053Z,1008.63
2022-11-20T17:43:12.313Z,1008.74
2022-11-20T17:48:13.728Z,1008.57
2022-11-20T17:53:13.207Z,1008.35
2022-11-20T17:58:12.726Z,1008.33
2022-11-20T18:03:12.230Z,1008.43
2022-11-20T18:08:13.725Z,1008.38
2022-11-20T18:13:11.135Z,1008.31
2022-11-20T18:18:12.664Z,1008.27
2022-11-20T18:23:10.956Z,1008.38
2022-11-20T18:28:12.324Z,1008.39
2022-11-20T18:33:13.750Z,1008.32
2022-11-20T18:38:14.058Z,1008.38
2022-11-20T18:43:13.566Z,1008.45
2022-11-20T18:48:14.044Z,1008.43
2022-11-20T18:53:14.532Z,1008.36
2022-11-20T18:58:14.162Z,1008.36
2022-11-20T19:03:14.651Z,1008.28
2022-11-20T19:08:15.192Z,1008.39
2022-11-20T19:13:14.783Z,1008.36
2022-11-20T19:18:15.022Z,1008.36
2022-11-20T19:23:15.217Z,1008.51
2022-11-20T19:28:14.947Z,1008.45
2022-11-20T19:33:16.073Z,1008.48
2022-11-20T19:38:14.312Z,1008.47
2022-11-20T19:43:16.640Z,1008.40
2022-11-20T19:48:18.141Z,1008.55
2022-11-20T19:53:16.790Z,1008.41
2022-11-20T19:58:16.300Z,1008.45
2022-11-20T20:03:16.796Z,1008.45
2022-11-20T20:08:17.240Z,1008.59
2022-11-20T20:13:16.800Z,1008.56
2022-11-20T20:18:16.375Z,1008.64
2022-11-20T20:23:15.758Z,1008.84
2022-11-20T20:28:17.300Z,1008.93
2022-11-20T20:33:17.006Z,1009.26
2022-11-20T20:38:18.290Z,1009.35
2022-11-20T20:43:21.661Z,1009.31
2022-11-20T20:48:19.229Z,1009.27
2022-11-20T20:53:18.796Z,1009.22
2022-11-20T20:58:19.259Z,1009.23
2022-11-20T21:03:18.577Z,1009.23
2022-11-20T21:08:19.907Z,1009.35
2022-11-20T21:13:21.275Z,1009.47
2022-11-20T21:18:20.529Z,1009.52
2022-11-20T21:23:23.645Z,1009.38
2022-11-20T21:28:22.783Z,1009.16
2022-11-20T21:33:24.916Z,1009.15
2022-11-20T21:38:24.403Z,1009.33
2022-11-20T21:43:24.600Z,1009.31
2022-11-20T21:48:23.750Z,1009.50
2022-11-20T21:53:24.920Z,1009.56
2022-11-20T21:58:26.000Z,1009.58
2022-11-20T22:03:29.089Z,1009.68
2022-11-20T22:08:28.200Z,1009.67
2022-11-20T22:13:30.299Z,1009.80
2022-11-20T22:18:29.584Z,1009.85
2022-11-20T22:23:30.666Z,1009.87
2022-11-20T22:28:31.749Z,1010.15
2022-11-20T22:33:32.937Z,1010.07
2022-11-20T22:38:39.095Z,1010.16
2022-11-20T22:43:34.154Z,1010.11
2022-11-20T22:48:36.240Z,1010.05
2022-11-20T22:53:35.421Z,1010.15
2022-11-20T22:58:36.591Z,1010.19
2022-11-20T23:03:37.794Z,1010.05
2022-11-20T23:08:39.211Z,1010.13
2022-11-20T23:13:40.470Z,1009.97
2022-11-20T23:18:41.704Z,1009.89
2022-11-20T23:23:42.933Z,1009.98
2022-11-20T23:28:44.292Z,1010.12
2022-11-20T23:33:45.581Z,1010.15
2022-11-20T23:38:46.687Z,1010.03
2022-11-20T23:43:49.795Z,1009.97
2022-11-20T23:48:49.097Z,1010.03
2022-11-20T23:53:51.202Z,1009.68
2022-11-20T23:58:50.449Z,1009.78
